Time,TemperatureF,DewpointF,PressureIn,WindDirection,WindDirectionDegrees,WindSpeedMPH,WindSpeedGustMPH,Humidity,HourlyPrecipIn,Conditions,Clouds,dailyrainin,SoftwareType,DateUTC
2013-02-14 00:03:00,31.5,25.7,30.45,SW,226,2.0,3.0,79,0.00,,,0.00,Wunderground v.1.15,2013-02-14 08:03:00,
2013-02-14 00:08:00,30.9,25.5,30.45,SW,226,0.0,3.0,80,0.00,,,0.00,Wunderground v.1.15,2013-02-14 08:08:00,
2013-02-14 00:13:00,30.2,25.4,30.45,SW,226,0.0,2.0,82,0.00,,,0.00,Wunderground v.1.15,2013-02-14 08:13:00,
2013-02-14 00:19:00,29.7,25.2,30.45,SW,226,0.0,2.0,83,0.00,,,0.00,Wunderground v.1.15,2013-02-14 08:19:00,
2013-02-14 00:24:00,29.8,25.6,30.45,SW,226,2.0,3.0,84,0.00,,,0.00,Wunderground v.1.15,2013-02-14 08:24:00,
2013-02-14 00:30:00,29.5,25.5,30.45,SW,226,0.0,1.0,85,0.00,,,0.00,Wunderground v.1.15,2013-02-14 08:30:00,
2013-02-14 00:35:00,29.2,25.5,30.46,SW,226,0.0,1.0,86,0.00,,,0.00,Wunderground v.1.15,2013-02-14 08:35:00,
2013-02-14 00:41:00,28.9,25.5,30.46,SW,226,0.0,0.0,87,0.00,,,0.00,Wunderground v.1.15,2013-02-14 08:41:00,
2013-02-14 00:47:00,28.9,26.1,30.46,SW,226,0.0,0.0,89,0.00,,,0.00,Wunderground v.1.15,2013-02-14 08:47:00,
2013-02-14 00:52:00,29.1,26.3,30.46,SW,226,0.0,0.0,89,0.00,,,0.00,Wunderground v.1.15,2013-02-14 08:52:00,
2013-02-14 00:58:00,29.7,26.6,30.46,SW,226,1.0,2.0,88,0.00,,,0.00,Wunderground v.1.15,2013-02-14 08:58:00,
2013-02-14 01:03:00,29.9,26.5,30.46,SW,226,2.0,2.0,87,0.00,,,0.00,Wunderground v.1.15,2013-02-14 09:03:00,
2013-02-14 01:08:00,29.7,26.3,30.47,SW,226,2.0,3.0,87,0.00,,,0.00,Wunderground v.1.15,2013-02-14 09:08:00,
2013-02-14 01:14:00,29.7,26.6,30.47,South,180,3.0,3.0,88,0.00,,,0.00,Wunderground v.1.15,2013-02-14 09:14:00,
2013-02-14 01:19:00,29.9,26.5,30.46,South,180,4.0,4.0,87,0.00,,,0.00,Wunderground v.1.15,2013-02-14 09:19:00,
2013-02-14 01:25:00,29.9,26.2,30.47,South,180,2.0,4.0,86,0.00,,,0.00,Wunderground v.1.15,2013-02-14 09:25:00,
2013-02-14 01:30:00,29.3,25.9,30.47,South,180,3.0,3.0,87,0.00,,,0.00,Wunderground v.1.15,2013-02-14 09:30:00,
2013-02-14 01:36:00,29.2,26.1,30.47,South,180,3.0,4.0,88,0.00,,,0.00,Wunderground v.1.15,2013-02-14 09:36:00,
2013-02-14 01:41:00,29.2,26.1,30.47,South,180,1.0,3.0,88,0.00,,,0.00,Wunderground v.1.15,2013-02-14 09:41:00,
2013-02-14 01:46:00,29.1,26.0,30.47,South,180,4.0,4.0,88,0.00,,,0.00,Wunderground v.1.15,2013-02-14 09:46:00,
2013-02-14 01:52:00,29.2,26.4,30.48,South,180,4.0,5.0,89,0.00,,,0.00,Wunderground v.1.15,2013-02-14 09:52:00,
2013-02-14 01:57:00,29.2,26.4,30.48,South,180,4.0,5.0,89,0.00,,,0.00,Wunderground v.1.15,2013-02-14 09:57:00,
2013-02-14 02:02:00,29.3,26.2,30.48,South,180,3.0,4.0,88,0.00,,,0.00,Wunderground v.1.15,2013-02-14 10:02:00,
2013-02-14 02:07:00,29.2,25.8,30.48,South,180,3.0,4.0,87,0.00,,,0.00,Wunderground v.1.15,2013-02-14 10:07:00,
2013-02-14 02:12:00,28.9,25.8,30.48,South,181,3.0,4.0,88,0.00,,,0.00,Wunderground v.1.15,2013-02-14 10:12:00,
2013-02-14 02:17:00,28.8,25.7,30.49,South,181,1.0,5.0,88,0.00,,,0.00,Wunderground v.1.15,2013-02-14 10:17:00,
2013-02-14 02:22:00,28.7,25.9,30.49,South,181,4.0,4.0,89,0.00,,,0.00,Wunderground v.1.15,2013-02-14 10:22:00,
2013-02-14 02:27:00,28.6,25.8,30.49,South,181,1.0,4.0,89,0.00,,,0.00,Wunderground v.1.15,2013-02-14 10:27:00,
2013-02-14 02:32:00,28.3,25.5,30.49,South,181,3.0,4.0,89,0.00,,,0.00,Wunderground v.1.15,2013-02-14 10:32:00,
2013-02-14 02:37:00,27.7,24.9,30.48,South,181,4.0,5.0,89,0.00,,,0.00,Wunderground v.1.15,2013-02-14 10:37:00,
2013-02-14 02:42:00,27.7,25.2,30.48,South,181,4.0,5.0,90,0.00,,,0.00,Wunderground v.1.15,2013-02-14 10:42:00,
2013-02-14 02:47:00,27.9,25.3,30.49,South,181,3.0,5.0,90,0.00,,,0.00,Wunderground v.1.15,2013-02-14 10:47:00,
2013-02-14 02:52:00,28.2,25.6,30.50,South,181,4.0,5.0,90,0.00,,,0.00,Wunderground v.1.15,2013-02-14 10:52:00,
2013-02-14 02:57:00,28.5,25.7,30.50,South,181,6.0,6.0,89,0.00,,,0.00,Wunderground v.1.15,2013-02-14 10:57:00,
2013-02-14 03:02:00,28.5,25.4,30.50,South,181,5.0,6.0,88,0.00,,,0.00,Wunderground v.1.15,2013-02-14 11:02:00,
2013-02-14 03:07:00,28.5,25.4,30.50,South,181,6.0,7.0,88,0.00,,,0.00,Wunderground v.1.15,2013-02-14 11:07:00,
2013-02-14 03:13:00,28.4,25.0,30.50,South,181,5.0,6.0,87,0.00,,,0.00,Wunderground v.1.15,2013-02-14 11:13:00,
2013-02-14 03:17:00,28.3,25.2,30.49,South,181,6.0,8.0,88,0.00,,,0.00,Wunderground v.1.15,2013-02-14 11:17:00,
2013-02-14 03:22:00,28.4,25.3,30.49,South,181,6.0,8.0,88,0.00,,,0.00,Wunderground v.1.15,2013-02-14 11:22:00,
2013-02-14 03:28:00,28.3,25.5,30.49,South,181,7.0,8.0,89,0.00,,,0.00,Wunderground v.1.15,2013-02-14 11:28:00,
2013-02-14 03:34:00,28.4,25.8,30.49,South,181,6.0,8.0,90,0.00,,,0.00,Wunderground v.1.15,2013-02-14 11:34:00,
2013-02-14 03:39:00,28.5,25.9,30.49,South,181,5.0,8.0,90,0.00,,,0.00,Wunderground v.1.15,2013-02-14 11:39:00,
2013-02-14 03:44:00,28.4,25.8,30.49,South,181,6.0,7.0,90,0.00,,,0.00,Wunderground v.1.15,2013-02-14 11:44:00,
2013-02-14 03:49:00,28.3,26.0,30.50,South,181,7.0,9.0,91,0.00,,,0.00,Wunderground v.1.15,2013-02-14 11:49:00,
2013-02-14 03:54:00,28.3,26.3,30.50,SSW,193,6.0,9.0,92,0.00,,,0.00,Wunderground v.1.15,2013-02-14 11:54:00,
2013-02-14 03:59:00,28.3,26.3,30.50,South,184,6.0,9.0,92,0.00,,,0.00,Wunderground v.1.15,2013-02-14 11:59:00,
2013-02-14 04:04:00,28.4,26.4,30.50,South,191,7.0,9.0,92,0.00,,,0.00,Wunderground v.1.15,2013-02-14 12:04:00,
2013-02-14 04:09:00,28.4,26.6,30.50,SSW,199,7.0,9.0,93,0.00,,,0.00,Wunderground v.1.15,2013-02-14 12:09:00,
2013-02-14 04:14:00,28.4,26.6,30.50,SSW,192,7.0,9.0,93,0.00,,,0.00,Wunderground v.1.15,2013-02-14 12:14:00,
2013-02-14 04:19:00,28.5,26.7,30.50,South,190,6.0,10.0,93,0.00,,,0.00,Wunderground v.1.15,2013-02-14 12:19:00,
2013-02-14 04:24:00,28.4,26.6,30.51,South,182,7.0,9.0,93,0.00,,,0.00,Wunderground v.1.15,2013-02-14 12:24:00,
2013-02-14 04:29:00,28.4,26.6,30.51,SSW,193,7.0,9.0,93,0.00,,,0.00,Wunderground v.1.15,2013-02-14 12:29:00,
2013-02-14 04:34:00,28.3,26.5,30.51,SSW,193,6.0,9.0,93,0.00,,,0.00,Wunderground v.1.15,2013-02-14 12:34:00,
2013-02-14 04:39:00,28.5,26.7,30.51,SSW,194,5.0,10.0,93,0.00,,,0.00,Wunderground v.1.15,2013-02-14 12:39:00,
2013-02-14 04:45:00,28.5,26.7,30.51,South,187,10.0,10.0,93,0.00,,,0.00,Wunderground v.1.15,2013-02-14 12:45:00,
2013-02-14 04:50:00,28.6,26.8,30.51,South,187,7.0,9.0,93,0.00,,,0.00,Wunderground v.1.15,2013-02-14 12:50:00,
2013-02-14 04:55:00,28.8,27.0,30.51,South,190,8.0,12.0,93,0.00,,,0.00,Wunderground v.1.15,2013-02-14 12:55:00,
2013-02-14 05:00:00,28.9,27.4,30.51,South,178,9.0,9.0,94,0.00,,,0.00,Wunderground v.1.15,2013-02-14 13:00:00,
2013-02-14 05:05:00,28.9,27.4,30.51,South,186,10.0,11.0,94,0.00,,,0.00,Wunderground v.1.15,2013-02-14 13:05:00,
2013-02-14 05:10:00,29.0,27.5,30.51,South,179,9.0,9.0,94,0.00,,,0.00,Wunderground v.1.15,2013-02-14 13:10:00,
2013-02-14 05:15:00,29.1,27.6,30.51,South,178,8.0,11.0,94,0.00,,,0.00,Wunderground v.1.15,2013-02-14 13:15:00,
2013-02-14 05:20:00,29.0,27.2,30.52,SSW,196,6.0,8.0,93,0.00,,,0.00,Wunderground v.1.15,2013-02-14 13:20:00,
2013-02-14 05:25:00,28.9,27.4,30.52,SSW,196,7.0,10.0,94,0.00,,,0.00,Wunderground v.1.15,2013-02-14 13:25:00,
2013-02-14 05:30:00,28.8,27.3,30.52,SSW,192,6.0,7.0,94,0.00,,,0.00,Wunderground v.1.15,2013-02-14 13:30:00,
2013-02-14 05:35:00,28.7,27.2,30.52,South,182,7.0,10.0,94,0.00,,,0.00,Wunderground v.1.15,2013-02-14 13:35:00,
2013-02-14 05:40:00,28.7,27.2,30.52,South,184,9.0,10.0,94,0.00,,,0.00,Wunderground v.1.15,2013-02-14 13:40:00,
2013-02-14 05:45:00,28.7,27.2,30.52,SSW,193,10.0,12.0,94,0.00,,,0.00,Wunderground v.1.15,2013-02-14 13:45:00,
2013-02-14 05:50:00,28.7,27.2,30.52,South,183,10.0,10.0,94,0.00,,,0.00,Wunderground v.1.15,2013-02-14 13:50:00,
2013-02-14 05:55:00,28.6,27.1,30.53,South,175,9.0,11.0,94,0.00,,,0.00,Wunderground v.1.15,2013-02-14 13:55:00,
2013-02-14 06:00:00,28.6,27.1,30.53,South,172,8.0,10.0,94,0.00,,,0.00,Wunderground v.1.15,2013-02-14 14:00:00,
2013-02-14 06:05:00,28.5,27.0,30.53,SSW,194,7.0,11.0,94,0.00,,,0.00,Wunderground v.1.15,2013-02-14 14:05:00,
2013-02-14 06:10:00,28.5,27.0,30.54,South,180,8.0,10.0,94,0.00,,,0.00,Wunderground v.1.15,2013-02-14 14:10:00,
2013-02-14 06:15:00,28.5,27.3,30.54,South,182,7.0,10.0,95,0.00,,,0.00,Wunderground v.1.15,2013-02-14 14:15:00,
2013-02-14 06:20:00,28.4,27.2,30.54,SSW,192,11.0,11.0,95,0.00,,,0.00,Wunderground v.1.15,2013-02-14 14:20:00,
2013-02-14 06:25:00,28.4,27.2,30.54,SSW,201,6.0,11.0,95,0.00,,,0.00,Wunderground v.1.15,2013-02-14 14:25:00,
2013-02-14 06:30:00,28.4,27.2,30.54,South,191,4.0,7.0,95,0.00,,,0.00,Wunderground v.1.15,2013-02-14 14:30:00,
2013-02-14 06:36:00,28.4,27.2,30.54,South,189,6.0,9.0,95,0.00,,,0.00,Wunderground v.1.15,2013-02-14 14:36:00,
2013-02-14 06:41:00,28.4,27.2,30.54,SSW,196,7.0,9.0,95,0.00,,,0.00,Wunderground v.1.15,2013-02-14 14:41:00,
2013-02-14 06:46:00,28.4,27.2,30.54,South,188,9.0,10.0,95,0.00,,,0.00,Wunderground v.1.15,2013-02-14 14:46:00,
2013-02-14 06:51:00,28.3,26.8,30.54,SSW,200,7.0,9.0,94,0.00,,,0.00,Wunderground v.1.15,2013-02-14 14:51:00,
2013-02-14 06:56:00,28.3,26.8,30.54,SSW,195,7.0,9.0,94,0.00,,,0.00,Wunderground v.1.15,2013-02-14 14:56:00,
2013-02-14 07:01:00,28.3,27.1,30.54,SSW,196,7.0,10.0,95,0.00,,,0.00,Wunderground v.1.15,2013-02-14 15:01:00,
2013-02-14 07:06:00,28.3,26.8,30.55,SSW,200,7.0,10.0,94,0.00,,,0.00,Wunderground v.1.15,2013-02-14 15:06:00,
2013-02-14 07:11:00,28.4,26.9,30.55,South,181,8.0,9.0,94,0.00,,,0.00,Wunderground v.1.15,2013-02-14 15:11:00,
2013-02-14 07:16:00,28.4,26.9,30.54,South,177,7.0,9.0,94,0.00,,,0.00,Wunderground v.1.15,2013-02-14 15:16:00,
2013-02-14 07:21:00,28.5,27.0,30.54,South,187,8.0,9.0,94,0.00,,,0.00,Wunderground v.1.15,2013-02-14 15:21:00,
2013-02-14 07:26:00,28.7,27.2,30.55,South,183,8.0,9.0,94,0.00,,,0.00,Wunderground v.1.15,2013-02-14 15:26:00,
2013-02-14 07:31:00,28.7,27.2,30.55,South,186,7.0,8.0,94,0.00,,,0.00,Wunderground v.1.15,2013-02-14 15:31:00,
2013-02-14 07:36:00,28.6,27.1,30.55,South,189,6.0,8.0,94,0.00,,,0.00,Wunderground v.1.15,2013-02-14 15:36:00,
2013-02-14 07:41:00,28.4,26.9,30.55,SSW,192,5.0,7.0,94,0.00,,,0.00,Wunderground v.1.15,2013-02-14 15:41:00,
2013-02-14 07:46:00,28.3,26.8,30.56,South,188,6.0,7.0,94,0.00,,,0.00,Wunderground v.1.15,2013-02-14 15:46:00,
2013-02-14 07:51:00,28.4,26.9,30.56,SSW,194,5.0,7.0,94,0.00,,,0.00,Wunderground v.1.15,2013-02-14 15:51:00,
2013-02-14 07:57:00,28.6,27.1,30.56,SSW,193,6.0,7.0,94,0.00,,,0.00,Wunderground v.1.15,2013-02-14 15:57:00,
2013-02-14 08:02:00,28.8,27.3,30.56,South,175,9.0,9.0,94,0.00,,,0.00,Wunderground v.1.15,2013-02-14 16:02:00,
2013-02-14 08:07:00,29.1,27.6,30.56,South,178,7.0,12.0,94,0.00,,,0.00,Wunderground v.1.15,2013-02-14 16:07:00,
2013-02-14 08:12:00,29.3,27.8,30.56,South,185,9.0,10.0,94,0.00,,,0.00,Wunderground v.1.15,2013-02-14 16:12:00,
2013-02-14 08:17:00,29.4,27.9,30.56,South,178,7.0,12.0,94,0.00,,,0.00,Wunderground v.1.15,2013-02-14 16:17:00,
2013-02-14 08:22:00,29.5,28.0,30.56,South,182,5.0,10.0,94,0.00,,,0.00,Wunderground v.1.15,2013-02-14 16:22:00,
2013-02-14 08:27:00,29.6,28.1,30.57,South,175,9.0,12.0,94,0.00,,,0.00,Wunderground v.1.15,2013-02-14 16:27:00,
2013-02-14 08:32:00,29.8,28.3,30.57,South,187,7.0,11.0,94,0.00,,,0.00,Wunderground v.1.15,2013-02-14 16:32:00,
2013-02-14 08:37:00,29.9,28.4,30.57,SSE,161,9.0,12.0,94,0.00,,,0.00,Wunderground v.1.15,2013-02-14 16:37:00,
2013-02-14 08:42:00,30.1,28.6,30.57,SSW,198,8.0,13.0,94,0.00,,,0.00,Wunderground v.1.15,2013-02-14 16:42:00,
2013-02-14 08:47:00,30.2,28.4,30.57,South,185,11.0,13.0,93,0.00,,,0.00,Wunderground v.1.15,2013-02-14 16:47:00,
2013-02-14 08:52:00,30.3,28.5,30.57,SSW,194,9.0,11.0,93,0.00,,,0.00,Wunderground v.1.15,2013-02-14 16:52:00,
2013-02-14 08:57:00,30.5,28.7,30.57,South,174,12.0,13.0,93,0.00,,,0.00,Wunderground v.1.15,2013-02-14 16:57:00,
2013-02-14 09:02:00,30.6,28.8,30.58,SSW,194,6.0,11.0,93,0.00,,,0.00,Wunderground v.1.15,2013-02-14 17:02:00,
2013-02-14 09:07:00,30.8,29.0,30.58,SSW,194,7.0,11.0,93,0.00,,,0.00,Wunderground v.1.15,2013-02-14 17:07:00,
2013-02-14 09:12:00,31.0,29.2,30.59,SSW,198,7.0,9.0,93,0.00,,,0.00,Wunderground v.1.15,2013-02-14 17:12:00,
2013-02-14 09:17:00,31.1,29.3,30.59,South,171,4.0,9.0,93,0.00,,,0.00,Wunderground v.1.15,2013-02-14 17:17:00,
2013-02-14 09:22:00,31.3,29.5,30.60,South,184,5.0,6.0,93,0.00,,,0.00,Wunderground v.1.15,2013-02-14 17:22:00,
2013-02-14 09:27:00,31.5,29.4,30.60,South,179,5.0,7.0,92,0.00,,,0.00,Wunderground v.1.15,2013-02-14 17:27:00,
2013-02-14 09:32:00,31.6,29.5,30.60,South,179,7.0,7.0,92,0.00,,,0.00,Wunderground v.1.15,2013-02-14 17:32:00,
2013-02-14 09:37:00,31.7,29.4,30.60,South,187,4.0,8.0,91,0.00,,,0.00,Wunderground v.1.15,2013-02-14 17:37:00,
2013-02-14 09:42:00,31.8,29.7,30.60,South,188,4.0,7.0,92,0.00,,,0.00,Wunderground v.1.15,2013-02-14 17:42:00,
2013-02-14 09:47:00,31.9,29.6,30.59,South,169,9.0,10.0,91,0.00,,,0.00,Wunderground v.1.15,2013-02-14 17:47:00,
2013-02-14 09:52:00,31.9,29.6,30.59,South,181,8.0,10.0,91,0.00,,,0.00,Wunderground v.1.15,2013-02-14 17:52:00,
2013-02-14 09:57:00,32.1,29.8,30.60,South,185,3.0,10.0,91,0.00,,,0.00,Wunderground v.1.15,2013-02-14 17:57:00,
2013-02-14 10:03:00,32.3,30.0,30.60,SSE,155,5.0,6.0,91,0.00,,,0.00,Wunderground v.1.15,2013-02-14 18:03:00,
2013-02-14 10:07:00,32.4,30.1,30.60,SSE,158,5.0,8.0,91,0.00,,,0.00,Wunderground v.1.15,2013-02-14 18:07:00,
2013-02-14 10:13:00,32.6,30.0,30.60,SSE,167,4.0,7.0,90,0.00,,,0.00,Wunderground v.1.15,2013-02-14 18:13:00,
2013-02-14 10:19:00,32.8,30.2,30.59,South,182,6.0,7.0,90,0.00,,,0.00,Wunderground v.1.15,2013-02-14 18:19:00,
2013-02-14 10:24:00,33.0,30.1,30.59,South,190,4.0,8.0,89,0.00,,,0.00,Wunderground v.1.15,2013-02-14 18:24:00,
2013-02-14 10:29:00,33.1,30.2,30.59,South,187,7.0,8.0,89,0.00,,,0.00,Wunderground v.1.15,2013-02-14 18:29:00,
2013-02-14 10:34:00,33.4,30.8,30.59,South,186,6.0,9.0,90,0.00,,,0.00,Wunderground v.1.15,2013-02-14 18:34:00,
2013-02-14 10:39:00,33.6,30.4,30.59,SSW,199,7.0,9.0,88,0.00,,,0.00,Wunderground v.1.15,2013-02-14 18:39:00,
2013-02-14 10:44:00,33.9,30.7,30.59,South,185,6.0,9.0,88,0.00,,,0.00,Wunderground v.1.15,2013-02-14 18:44:00,
2013-02-14 10:49:00,34.2,31.0,30.59,South,185,7.0,9.0,88,0.00,,,0.00,Wunderground v.1.15,2013-02-14 18:49:00,
2013-02-14 10:54:00,34.4,30.9,30.59,SSW,192,3.0,6.0,87,0.00,,,0.00,Wunderground v.1.15,2013-02-14 18:54:00,
2013-02-14 10:59:00,34.7,30.9,30.59,SSW,192,6.0,7.0,86,0.00,,,0.00,Wunderground v.1.15,2013-02-14 18:59:00,
2013-02-14 11:04:00,35.0,31.2,30.59,South,184,5.0,7.0,86,0.00,,,0.00,Wunderground v.1.15,2013-02-14 19:04:00,
2013-02-14 11:09:00,35.4,31.3,30.59,SW,223,8.0,8.0,85,0.00,,,0.00,Wunderground v.1.15,2013-02-14 19:09:00,
2013-02-14 11:15:00,35.5,31.4,30.59,SSW,194,5.0,10.0,85,0.00,,,0.00,Wunderground v.1.15,2013-02-14 19:15:00,
2013-02-14 11:20:00,35.7,31.3,30.59,SSW,195,6.0,7.0,84,0.00,,,0.00,Wunderground v.1.15,2013-02-14 19:20:00,
2013-02-14 11:25:00,35.9,31.2,30.59,SSW,196,6.0,9.0,83,0.00,,,0.00,Wunderground v.1.15,2013-02-14 19:25:00,
2013-02-14 11:30:00,36.4,32.0,30.59,SSW,196,6.0,6.0,84,0.00,,,0.00,Wunderground v.1.15,2013-02-14 19:30:00,
2013-02-14 11:35:00,36.8,31.8,30.59,South,186,4.0,10.0,82,0.00,,,0.00,Wunderground v.1.15,2013-02-14 19:35:00,
2013-02-14 11:40:00,37.3,32.3,30.59,SSW,197,4.0,6.0,82,0.00,,,0.00,Wunderground v.1.15,2013-02-14 19:40:00,
2013-02-14 11:45:00,37.7,32.7,30.59,South,188,6.0,7.0,82,0.00,,,0.00,Wunderground v.1.15,2013-02-14 19:45:00,
2013-02-14 11:50:00,37.7,32.1,30.59,South,188,4.0,5.0,80,0.00,,,0.00,Wunderground v.1.15,2013-02-14 19:50:00,
2013-02-14 11:55:00,37.9,32.3,30.59,South,188,0.0,5.0,80,0.00,,,0.00,Wunderground v.1.15,2013-02-14 19:55:00,
2013-02-14 12:00:00,37.9,32.0,30.59,SSW,202,4.0,6.0,79,0.00,,,0.00,Wunderground v.1.15,2013-02-14 20:00:00,
2013-02-14 12:05:00,37.9,31.7,30.58,SSW,194,6.0,7.0,78,0.00,,,0.00,Wunderground v.1.15,2013-02-14 20:05:00,
2013-02-14 12:10:00,37.9,31.7,30.58,SSW,202,4.0,5.0,78,0.00,,,0.00,Wunderground v.1.15,2013-02-14 20:10:00,
2013-02-14 12:15:00,38.0,31.7,30.58,SSW,202,4.0,7.0,78,0.00,,,0.00,Wunderground v.1.15,2013-02-14 20:15:00,
2013-02-14 12:20:00,38.0,31.4,30.58,SSW,210,4.0,7.0,77,0.00,,,0.00,Wunderground v.1.15,2013-02-14 20:20:00,
2013-02-14 12:25:00,38.2,31.9,30.58,SW,227,4.0,7.0,78,0.00,,,0.00,Wunderground v.1.15,2013-02-14 20:25:00,
2013-02-14 12:30:00,38.3,32.0,30.58,SW,227,2.0,4.0,78,0.00,,,0.00,Wunderground v.1.15,2013-02-14 20:30:00,
2013-02-14 12:35:00,38.4,31.8,30.58,SW,216,5.0,6.0,77,0.00,,,0.00,Wunderground v.1.15,2013-02-14 20:35:00,
2013-02-14 12:40:00,38.6,32.0,30.58,SW,215,4.0,7.0,77,0.00,,,0.00,Wunderground v.1.15,2013-02-14 20:40:00,
2013-02-14 12:46:00,38.7,32.1,30.58,SSW,205,5.0,7.0,77,0.00,,,0.00,Wunderground v.1.15,2013-02-14 20:46:00,
2013-02-14 12:51:00,38.8,31.9,30.58,SW,233,3.0,5.0,76,0.00,,,0.00,Wunderground v.1.15,2013-02-14 20:51:00,
2013-02-14 12:56:00,38.9,32.0,30.58,SW,228,5.0,6.0,76,0.00,,,0.00,Wunderground v.1.15,2013-02-14 20:56:00,
2013-02-14 13:01:00,38.8,31.6,30.58,SSW,197,7.0,8.0,75,0.00,,,0.00,Wunderground v.1.15,2013-02-14 21:01:00,
2013-02-14 13:06:00,38.8,31.6,30.58,SSW,196,7.0,9.0,75,0.00,,,0.00,Wunderground v.1.15,2013-02-14 21:06:00,
2013-02-14 13:11:00,38.9,31.6,30.58,SSW,203,6.0,7.0,75,0.00,,,0.00,Wunderground v.1.15,2013-02-14 21:11:00,
2013-02-14 13:16:00,39.0,32.1,30.58,SSW,201,4.0,7.0,76,0.00,,,0.00,Wunderground v.1.15,2013-02-14 21:16:00,
2013-02-14 13:21:00,39.3,32.0,30.58,SSW,201,4.0,5.0,75,0.00,,,0.00,Wunderground v.1.15,2013-02-14 21:21:00,
2013-02-14 13:26:00,39.3,31.7,30.57,SSW,209,5.0,6.0,74,0.00,,,0.00,Wunderground v.1.15,2013-02-14 21:26:00,
2013-02-14 13:31:00,39.3,31.7,30.57,SW,215,5.0,7.0,74,0.00,,,0.00,Wunderground v.1.15,2013-02-14 21:31:00,
2013-02-14 13:36:00,39.4,31.8,30.58,SW,219,8.0,8.0,74,0.00,,,0.00,Wunderground v.1.15,2013-02-14 21:36:00,
2013-02-14 13:41:00,39.3,31.4,30.58,SW,215,6.0,7.0,73,0.00,,,0.00,Wunderground v.1.15,2013-02-14 21:41:00,
2013-02-14 13:46:00,39.4,31.5,30.58,SW,236,5.0,7.0,73,0.00,,,0.00,Wunderground v.1.15,2013-02-14 21:46:00,
2013-02-14 13:51:00,39.5,31.9,30.58,SW,217,5.0,6.0,74,0.00,,,0.00,Wunderground v.1.15,2013-02-14 21:51:00,
2013-02-14 13:56:00,39.5,31.2,30.58,SSW,205,5.0,7.0,72,0.00,,,0.00,Wunderground v.1.15,2013-02-14 21:56:00,
2013-02-14 14:01:00,39.4,31.5,30.58,SSW,205,5.0,7.0,73,0.00,,,0.00,Wunderground v.1.15,2013-02-14 22:01:00,
2013-02-14 14:06:00,39.4,31.5,30.58,SSW,213,6.0,9.0,73,0.00,,,0.00,Wunderground v.1.15,2013-02-14 22:06:00,
2013-02-14 14:11:00,39.5,31.9,30.58,SSW,205,7.0,7.0,74,0.00,,,0.00,Wunderground v.1.15,2013-02-14 22:11:00,
2013-02-14 14:16:00,39.5,31.9,30.58,SSW,213,5.0,8.0,74,0.00,,,0.00,Wunderground v.1.15,2013-02-14 22:16:00,
2013-02-14 14:21:00,39.6,32.0,30.58,SSW,205,2.0,7.0,74,0.00,,,0.00,Wunderground v.1.15,2013-02-14 22:21:00,
2013-02-14 14:26:00,39.7,32.1,30.58,SSW,211,6.0,7.0,74,0.00,,,0.00,Wunderground v.1.15,2013-02-14 22:26:00,
2013-02-14 14:31:00,39.7,32.1,30.58,SW,228,5.0,7.0,74,0.00,,,0.00,Wunderground v.1.15,2013-02-14 22:31:00,
2013-02-14 14:36:00,39.7,31.4,30.58,SSW,197,3.0,7.0,72,0.00,,,0.00,Wunderground v.1.15,2013-02-14 22:36:00,
2013-02-14 14:41:00,39.7,30.7,30.58,SSW,207,5.0,7.0,70,0.00,,,0.00,Wunderground v.1.15,2013-02-14 22:41:00,
2013-02-14 14:46:00,39.8,30.5,30.58,WSW,249,4.0,7.0,69,0.00,,,0.00,Wunderground v.1.15,2013-02-14 22:46:00,
2013-02-14 14:51:00,39.8,30.5,30.58,WSW,242,4.0,7.0,69,0.00,,,0.00,Wunderground v.1.15,2013-02-14 22:51:00,
2013-02-14 14:56:00,39.8,30.5,30.59,SW,227,5.0,9.0,69,0.00,,,0.00,Wunderground v.1.15,2013-02-14 22:56:00,
2013-02-14 15:01:00,39.8,30.5,30.59,SW,219,6.0,7.0,69,0.00,,,0.00,Wunderground v.1.15,2013-02-14 23:01:00,
2013-02-14 15:06:00,39.7,30.7,30.59,SW,229,4.0,7.0,70,0.00,,,0.00,Wunderground v.1.15,2013-02-14 23:06:00,
2013-02-14 15:11:00,39.7,30.7,30.59,SSW,205,4.0,8.0,70,0.00,,,0.00,Wunderground v.1.15,2013-02-14 23:11:00,
2013-02-14 15:17:00,39.6,30.6,30.60,SW,235,7.0,8.0,70,0.00,,,0.00,Wunderground v.1.15,2013-02-14 23:17:00,
2013-02-14 15:22:00,39.5,30.5,30.59,SW,225,3.0,8.0,70,0.00,,,0.00,Wunderground v.1.15,2013-02-14 23:22:00,
2013-02-14 15:27:00,39.5,30.9,30.59,SW,220,6.0,8.0,71,0.00,,,0.00,Wunderground v.1.15,2013-02-14 23:27:00,
2013-02-14 15:32:00,39.4,31.1,30.60,WSW,254,4.0,7.0,72,0.00,,,0.00,Wunderground v.1.15,2013-02-14 23:32:00,
2013-02-14 15:37:00,39.4,31.1,30.59,SW,234,2.0,8.0,72,0.00,,,0.00,Wunderground v.1.15,2013-02-14 23:37:00,
2013-02-14 15:42:00,39.4,30.8,30.60,SW,223,5.0,9.0,71,0.00,,,0.00,Wunderground v.1.15,2013-02-14 23:42:00,
2013-02-14 15:47:00,39.4,30.8,30.60,SSW,207,3.0,9.0,71,0.00,,,0.00,Wunderground v.1.15,2013-02-14 23:47:00,
2013-02-14 15:52:00,39.4,30.8,30.60,SW,225,2.0,5.0,71,0.00,,,0.00,Wunderground v.1.15,2013-02-14 23:52:00,
2013-02-14 15:57:00,39.4,30.8,30.60,SW,228,4.0,6.0,71,0.00,,,0.00,Wunderground v.1.15,2013-02-14 23:57:00,
2013-02-14 16:02:00,39.3,31.0,30.59,SSW,211,3.0,5.0,72,0.00,,,0.00,Wunderground v.1.15,2013-02-15 00:02:00,
2013-02-14 16:07:00,39.6,31.0,30.59,SSW,211,4.0,5.0,71,0.00,,,0.00,Wunderground v.1.15,2013-02-15 00:07:00,
2013-02-14 16:12:00,40.1,31.4,30.60,SSW,205,1.0,4.0,71,0.00,,,0.00,Wunderground v.1.15,2013-02-15 00:12:00,
2013-02-14 16:17:00,40.3,30.9,30.60,SSW,205,5.0,6.0,69,0.00,,,0.00,Wunderground v.1.15,2013-02-15 00:17:00,
2013-02-14 16:22:00,40.2,30.5,30.60,SW,225,3.0,7.0,68,0.00,,,0.00,Wunderground v.1.15,2013-02-15 00:22:00,
2013-02-14 16:27:00,40.1,30.7,30.59,SSW,200,5.0,7.0,69,0.00,,,0.00,Wunderground v.1.15,2013-02-15 00:27:00,
2013-02-14 16:32:00,40.0,30.6,30.59,SW,215,5.0,6.0,69,0.00,,,0.00,Wunderground v.1.15,2013-02-15 00:32:00,
2013-02-14 16:37:00,39.9,30.9,30.60,SW,215,4.0,6.0,70,0.00,,,0.00,Wunderground v.1.15,2013-02-15 00:37:00,
2013-02-14 16:42:00,39.7,30.7,30.60,SW,231,2.0,5.0,70,0.00,,,0.00,Wunderground v.1.15,2013-02-15 00:42:00,
2013-02-14 16:47:00,39.6,31.0,30.60,SW,231,4.0,5.0,71,0.00,,,0.00,Wunderground v.1.15,2013-02-15 00:47:00,
2013-02-14 16:52:00,39.4,31.1,30.60,SW,223,6.0,7.0,72,0.00,,,0.00,Wunderground v.1.15,2013-02-15 00:52:00,
2013-02-14 16:57:00,39.2,31.3,30.60,SW,217,3.0,7.0,73,0.00,,,0.00,Wunderground v.1.15,2013-02-15 00:57:00,
2013-02-14 17:02:00,38.9,31.0,30.60,SW,217,4.0,5.0,73,0.00,,,0.00,Wunderground v.1.15,2013-02-15 01:02:00,
2013-02-14 17:07:00,38.6,31.0,30.60,SW,218,2.0,5.0,74,0.00,,,0.00,Wunderground v.1.15,2013-02-15 01:07:00,
2013-02-14 17:12:00,38.4,31.2,30.59,SW,218,4.0,5.0,75,0.00,,,0.00,Wunderground v.1.15,2013-02-15 01:12:00,
2013-02-14 17:17:00,38.2,31.0,30.60,SW,218,3.0,5.0,75,0.00,,,0.00,Wunderground v.1.15,2013-02-15 01:17:00,
2013-02-14 17:22:00,37.9,31.0,30.59,SW,218,4.0,5.0,76,0.00,,,0.00,Wunderground v.1.15,2013-02-15 01:22:00,
2013-02-14 17:27:00,37.6,31.0,30.59,SW,218,2.0,5.0,77,0.00,,,0.00,Wunderground v.1.15,2013-02-15 01:27:00,
2013-02-14 17:32:00,37.4,30.8,30.59,SW,218,3.0,4.0,77,0.00,,,0.00,Wunderground v.1.15,2013-02-15 01:32:00,
2013-02-14 17:37:00,37.3,30.7,30.59,SW,218,3.0,4.0,77,0.00,,,0.00,Wunderground v.1.15,2013-02-15 01:37:00,
2013-02-14 17:42:00,37.1,30.6,30.59,SW,218,3.0,4.0,77,0.00,,,0.00,Wunderground v.1.15,2013-02-15 01:42:00,
2013-02-14 17:48:00,36.9,30.7,30.59,SW,218,4.0,5.0,78,0.00,,,0.00,Wunderground v.1.15,2013-02-15 01:48:00,
2013-02-14 17:53:00,36.8,30.6,30.59,SW,218,5.0,5.0,78,0.00,,,0.00,Wunderground v.1.15,2013-02-15 01:53:00,
2013-02-14 17:59:00,36.8,30.6,30.59,SSW,211,4.0,6.0,78,0.00,,,0.00,Wunderground v.1.15,2013-02-15 01:59:00,
2013-02-14 18:04:00,36.7,30.5,30.59,SSW,211,5.0,6.0,78,0.00,,,0.00,Wunderground v.1.15,2013-02-15 02:04:00,
2013-02-14 18:09:00,36.5,30.6,30.59,SSW,211,5.0,6.0,79,0.00,,,0.00,Wunderground v.1.15,2013-02-15 02:09:00,
2013-02-14 18:14:00,36.6,30.4,30.59,SSW,211,5.0,6.0,78,0.00,,,0.00,Wunderground v.1.15,2013-02-15 02:14:00,
2013-02-14 18:19:00,36.7,29.8,30.59,SW,223,4.0,6.0,76,0.00,,,0.00,Wunderground v.1.15,2013-02-15 02:19:00,
2013-02-14 18:24:00,36.7,29.8,30.59,SW,223,5.0,6.0,76,0.00,,,0.00,Wunderground v.1.15,2013-02-15 02:24:00,
2013-02-14 18:29:00,36.7,29.8,30.59,SW,223,5.0,6.0,76,0.00,,,0.00,Wunderground v.1.15,2013-02-15 02:29:00,
2013-02-14 18:34:00,36.5,30.0,30.59,SW,223,1.0,5.0,77,0.00,,,0.00,Wunderground v.1.15,2013-02-15 02:34:00,
2013-02-14 18:39:00,36.2,29.7,30.59,SW,223,1.0,5.0,77,0.00,,,0.00,Wunderground v.1.15,2013-02-15 02:39:00,
2013-02-14 18:44:00,36.1,29.9,30.60,SW,223,0.0,2.0,78,0.00,,,0.00,Wunderground v.1.15,2013-02-15 02:44:00,
2013-02-14 18:49:00,36.0,29.8,30.59,SW,223,0.0,2.0,78,0.00,,,0.00,Wunderground v.1.15,2013-02-15 02:49:00,
2013-02-14 18:54:00,35.9,30.0,30.59,SW,223,0.0,0.0,79,0.00,,,0.00,Wunderground v.1.15,2013-02-15 02:54:00,
2013-02-14 18:59:00,35.9,29.7,30.59,SW,223,0.0,1.0,78,0.00,,,0.00,Wunderground v.1.15,2013-02-15 02:59:00,
2013-02-14 19:05:00,36.0,29.8,30.60,SW,223,0.0,0.0,78,0.00,,,0.00,Wunderground v.1.15,2013-02-15 03:05:00,
2013-02-14 19:10:00,35.9,29.7,30.60,SW,223,0.0,0.0,78,0.00,,,0.00,Wunderground v.1.15,2013-02-15 03:10:00,
2013-02-14 19:15:00,36.1,29.6,30.60,SW,223,2.0,2.0,77,0.00,,,0.00,Wunderground v.1.15,2013-02-15 03:15:00,
2013-02-14 19:20:00,36.1,29.6,30.60,SW,223,0.0,0.0,77,0.00,,,0.00,Wunderground v.1.15,2013-02-15 03:20:00,
2013-02-14 19:25:00,36.2,29.7,30.60,SW,223,0.0,0.0,77,0.00,,,0.00,Wunderground v.1.15,2013-02-15 03:25:00,
2013-02-14 19:30:00,36.3,29.5,30.60,SW,223,0.0,0.0,76,0.00,,,0.00,Wunderground v.1.15,2013-02-15 03:30:00,
2013-02-14 19:35:00,36.4,29.6,30.60,SW,223,0.0,0.0,76,0.00,,,0.00,Wunderground v.1.15,2013-02-15 03:35:00,
2013-02-14 19:40:00,36.6,29.4,30.60,SW,223,1.0,1.0,75,0.00,,,0.00,Wunderground v.1.15,2013-02-15 03:40:00,
2013-02-14 19:45:00,36.8,29.6,30.60,SW,223,1.0,2.0,75,0.00,,,0.00,Wunderground v.1.15,2013-02-15 03:45:00,
2013-02-14 19:50:00,36.7,29.5,30.60,SW,223,0.0,0.0,75,0.00,,,0.00,Wunderground v.1.15,2013-02-15 03:50:00,
2013-02-14 19:55:00,36.6,29.4,30.60,SW,223,0.0,0.0,75,0.00,,,0.00,Wunderground v.1.15,2013-02-15 03:55:00,
2013-02-14 20:00:00,36.6,29.4,30.60,SW,223,0.0,0.0,75,0.00,,,0.00,Wunderground v.1.15,2013-02-15 04:00:00,
2013-02-14 20:05:00,36.8,29.6,30.60,SW,223,1.0,2.0,75,0.00,,,0.00,Wunderground v.1.15,2013-02-15 04:05:00,
2013-02-14 20:10:00,36.9,29.7,30.61,SW,223,3.0,3.0,75,0.00,,,0.00,Wunderground v.1.15,2013-02-15 04:10:00,
2013-02-14 20:15:00,36.9,30.0,30.61,WNW,283,3.0,4.0,76,0.00,,,0.00,Wunderground v.1.15,2013-02-15 04:15:00,
2013-02-14 20:20:00,37.1,30.2,30.61,WNW,283,2.0,3.0,76,0.00,,,0.00,Wunderground v.1.15,2013-02-15 04:20:00,
2013-02-14 20:25:00,37.1,30.2,30.61,WNW,283,0.0,3.0,76,0.00,,,0.00,Wunderground v.1.15,2013-02-15 04:25:00,
2013-02-14 20:30:00,37.0,29.8,30.61,WNW,283,0.0,1.0,75,0.00,,,0.00,Wunderground v.1.15,2013-02-15 04:30:00,
2013-02-14 20:35:00,36.8,29.6,30.61,WNW,283,0.0,1.0,75,0.00,,,0.00,Wunderground v.1.15,2013-02-15 04:35:00,
2013-02-14 20:41:00,36.6,29.4,30.61,WNW,283,0.0,0.0,75,0.00,,,0.00,Wunderground v.1.15,2013-02-15 04:41:00,
2013-02-14 20:46:00,36.7,29.8,30.61,WNW,283,0.0,1.0,76,0.00,,,0.00,Wunderground v.1.15,2013-02-15 04:46:00,
2013-02-14 20:51:00,36.8,29.9,30.61,WNW,283,0.0,0.0,76,0.00,,,0.00,Wunderground v.1.15,2013-02-15 04:51:00,
2013-02-14 20:56:00,36.5,29.3,30.62,WNW,283,0.0,0.0,75,0.00,,,0.00,Wunderground v.1.15,2013-02-15 04:56:00,
2013-02-14 21:00:00,36.4,29.6,30.62,WNW,283,0.0,0.0,76,0.00,,,0.00,Wunderground v.1.15,2013-02-15 05:00:00,
2013-02-14 21:01:00,36.3,29.5,30.62,WNW,283,0.0,0.0,76,0.00,,,0.00,Wunderground v.1.15,2013-02-15 05:01:00,
2013-02-14 21:06:00,36.3,29.5,30.62,WNW,283,0.0,0.0,76,0.00,,,0.00,Wunderground v.1.15,2013-02-15 05:06:00,
2013-02-14 21:11:00,36.4,29.6,30.62,WNW,283,0.0,0.0,76,0.00,,,0.00,Wunderground v.1.15,2013-02-15 05:11:00,
2013-02-14 21:16:00,36.2,29.4,30.62,WNW,283,0.0,0.0,76,0.00,,,0.00,Wunderground v.1.15,2013-02-15 05:16:00,
2013-02-14 21:21:00,35.7,29.2,30.63,WNW,283,1.0,1.0,77,0.00,,,0.00,Wunderground v.1.15,2013-02-15 05:21:00,
2013-02-14 21:26:00,35.2,29.3,30.63,NNE,28,2.0,3.0,79,0.00,,,0.00,Wunderground v.1.15,2013-02-15 05:26:00,
2013-02-14 21:31:00,34.8,29.3,30.64,East,96,1.0,3.0,80,0.00,,,0.00,Wunderground v.1.15,2013-02-15 05:31:00,
2013-02-14 21:36:00,34.8,29.6,30.64,East,96,2.0,3.0,81,0.00,,,0.00,Wunderground v.1.15,2013-02-15 05:36:00,
2013-02-14 21:41:00,34.8,29.6,30.63,East,96,2.0,3.0,81,0.00,,,0.00,Wunderground v.1.15,2013-02-15 05:41:00,
2013-02-14 21:46:00,35.0,29.5,30.63,East,101,5.0,6.0,80,0.00,,,0.00,Wunderground v.1.15,2013-02-15 05:46:00,
2013-02-14 21:51:00,35.2,29.6,30.63,SE,146,6.0,6.0,80,0.00,,,0.00,Wunderground v.1.15,2013-02-15 05:51:00,
2013-02-14 21:56:00,34.4,29.5,30.63,SE,146,3.0,6.0,82,0.00,,,0.00,Wunderground v.1.15,2013-02-15 05:56:00,
2013-02-14 22:01:00,34.4,29.8,30.63,SE,146,3.0,4.0,83,0.00,,,0.00,Wunderground v.1.15,2013-02-15 06:01:00,
2013-02-14 22:06:00,34.7,30.1,30.63,SE,146,3.0,4.0,83,0.00,,,0.00,Wunderground v.1.15,2013-02-15 06:06:00,
2013-02-14 22:11:00,35.3,30.1,30.63,SE,146,3.0,3.0,81,0.00,,,0.00,Wunderground v.1.15,2013-02-15 06:11:00,
2013-02-14 22:16:00,35.5,30.2,30.64,SE,146,3.0,4.0,81,0.00,,,0.00,Wunderground v.1.15,2013-02-15 06:16:00,
2013-02-14 22:21:00,35.0,30.4,30.64,SE,146,0.0,3.0,83,0.00,,,0.00,Wunderground v.1.15,2013-02-15 06:21:00,
2013-02-14 22:26:00,34.6,30.0,30.64,SE,146,0.0,3.0,83,0.00,,,0.00,Wunderground v.1.15,2013-02-15 06:26:00,
2013-02-14 22:31:00,34.3,29.7,30.65,SE,146,0.0,0.0,83,0.00,,,0.00,Wunderground v.1.15,2013-02-15 06:31:00,
2013-02-14 22:36:00,34.1,29.5,30.65,SE,146,0.0,0.0,83,0.00,,,0.00,Wunderground v.1.15,2013-02-15 06:36:00,
2013-02-14 22:41:00,33.7,29.1,30.65,SE,146,1.0,2.0,83,0.00,,,0.00,Wunderground v.1.15,2013-02-15 06:41:00,
2013-02-14 22:46:00,33.2,28.9,30.65,SE,146,2.0,2.0,84,0.00,,,0.00,Wunderground v.1.15,2013-02-15 06:46:00,
2013-02-14 22:52:00,32.9,28.9,30.65,SE,146,1.0,2.0,85,0.00,,,0.00,Wunderground v.1.15,2013-02-15 06:52:00,
2013-02-14 22:57:00,32.7,28.7,30.65,SE,146,0.0,2.0,85,0.00,,,0.00,Wunderground v.1.15,2013-02-15 06:57:00,
2013-02-14 23:02:00,32.6,28.9,30.65,SE,146,0.0,1.0,86,0.00,,,0.00,Wunderground v.1.15,2013-02-15 07:02:00,
2013-02-14 23:07:00,32.6,28.9,30.66,SE,146,0.0,1.0,86,0.00,,,0.00,Wunderground v.1.15,2013-02-15 07:07:00,
2013-02-14 23:12:00,32.6,28.9,30.65,SE,146,0.0,0.0,86,0.00,,,0.00,Wunderground v.1.15,2013-02-15 07:12:00,
2013-02-14 23:17:00,32.7,29.0,30.65,SE,146,0.0,0.0,86,0.00,,,0.00,Wunderground v.1.15,2013-02-15 07:17:00,
2013-02-14 23:22:00,32.9,29.2,30.66,SE,146,0.0,0.0,86,0.00,,,0.00,Wunderground v.1.15,2013-02-15 07:22:00,
2013-02-14 23:27:00,33.0,29.0,30.66,SE,146,0.0,0.0,85,0.00,,,0.00,Wunderground v.1.15,2013-02-15 07:27:00,
2013-02-14 23:32:00,33.0,29.0,30.66,SE,146,0.0,0.0,85,0.00,,,0.00,Wunderground v.1.15,2013-02-15 07:32:00,
2013-02-14 23:37:00,33.1,29.4,30.66,SE,146,0.0,0.0,86,0.00,,,0.00,Wunderground v.1.15,2013-02-15 07:37:00,
2013-02-14 23:42:00,33.3,29.3,30.66,SE,146,3.0,3.0,85,0.00,,,0.00,Wunderground v.1.15,2013-02-15 07:42:00,
2013-02-14 23:47:00,33.1,29.1,30.66,SE,146,2.0,3.0,85,0.00,,,0.00,Wunderground v.1.15,2013-02-15 07:47:00,
2013-02-14 23:52:00,32.7,28.7,30.66,SE,146,0.0,2.0,85,0.00,,,0.00,Wunderground v.1.15,2013-02-15 07:52:00,
2013-02-14 23:57:00,32.5,28.8,30.66,SE,146,0.0,2.0,86,0.00,,,0.00,Wunderground v.1.15,2013-02-15 07:57:00,